Observations for AMSTERDAM SCHIPHOL, Netherlands (EHAM)

EHAM 200655Z 05006KT CAVOK 15/08 Q1030 NOSIG
EHAM 200625Z 05005KT CAVOK 14/09 Q1030 NOSIG
EHAM 200555Z 05006KT 020V080 CAVOK 12/08 Q1030 NOSIG
EHAM 200525Z 04005KT CAVOK 11/07 Q1030 NOSIG
EHAM 200455Z 03004KT CAVOK 11/07 Q1029 NOSIG
EHAM 200425Z 04004KT CAVOK 10/07 Q1029 NOSIG
EHAM 200355Z 04005KT CAVOK 11/07 Q1029 NOSIG
EHAM 200325Z 05006KT CAVOK 11/08 Q1029 NOSIG
EHAM 200255Z 05008KT CAVOK 11/08 Q1029 NOSIG
EHAM 200225Z 05008KT CAVOK 12/08 Q1029 NOSIG
EHAM 200155Z 05007KT CAVOK 12/08 Q1029 NOSIG
EHAM 200125Z 04007KT CAVOK 12/08 Q1029 NOSIG
EHAM 200055Z 03007KT CAVOK 12/07 Q1029 NOSIG
EHAM 200025Z 04008KT CAVOK 13/07 Q1029 NOSIG
EHAM 192355Z 04007KT CAVOK 13/07 Q1029 NOSIG
EHAM 192325Z 04007KT CAVOK 13/08 Q1029 NOSIG
EHAM 192255Z 05008KT CAVOK 14/08 Q1029 NOSIG
EHAM 192225Z 05007KT CAVOK 14/08 Q1029 NOSIG
EHAM 192155Z 04007KT CAVOK 14/08 Q1029 NOSIG
EHAM 192125Z 05008KT CAVOK 14/07 Q1029 NOSIG
EHAM 192055Z 05008KT CAVOK 16/06 Q1029 NOSIG
EHAM 192025Z 05008KT 030V100 CAVOK 16/06 Q1029 NOSIG
EHAM 191955Z 04007KT CAVOK 17/06 Q1029 NOSIG
EHAM 191925Z 04007KT 350V140 CAVOK 18/07 Q1028 NOSIG
EHAM 191855Z 02007KT 330V070 CAVOK 18/08 Q1028 NOSIG
EHAM 191825Z 04008KT CAVOK 19/05 Q1028 NOSIG
EHAM 191755Z 03008KT 010V070 CAVOK 20/05 Q1028 NOSIG
EHAM 191725Z 03011KT CAVOK 21/05 Q1028 NOSIG
EHAM 191655Z 03011KT CAVOK 21/05 Q1028 NOSIG
EHAM 191625Z 04011KT CAVOK 22/04 Q1028 NOSIG
EHAM 191555Z 06010KT CAVOK 22/05 Q1028 NOSIG
EHAM 191525Z 05010KT 030V100 CAVOK 22/05 Q1028 NOSIG
EHAM 191455Z 05010KT 020V080 CAVOK 23/07 Q1028 NOSIG
EHAM 191425Z 04009KT 350V110 CAVOK 23/07 Q1028 NOSIG
EHAM 191355Z 04010KT 010V070 CAVOK 22/07 Q1028 NOSIG
EHAM 191325Z 04011KT CAVOK 22/08 Q1028 NOSIG
EHAM 191255Z 04010KT 010V100 CAVOK 22/09 Q1028 NOSIG
EHAM 191225Z 05011KT 020V080 CAVOK 21/08 Q1028 NOSIG
EHAM 191155Z 05011KT 010V080 CAVOK 21/08 Q1028 NOSIG
EHAM 191125Z 04010KT 010V110 CAVOK 20/08 Q1028 NOSIG
EHAM 191055Z 05007KT 350V130 CAVOK 20/08 Q1029 NOSIG
EHAM 191025Z 05009KT 360V100 CAVOK 19/07 Q1029 NOSIG
EHAM 190955Z 06008KT 350V090 CAVOK 19/08 Q1029 NOSIG
EHAM 190925Z 05008KT 010V080 CAVOK 18/07 Q1029 NOSIG
EHAM 190855Z 06008KT 010V110 CAVOK 17/07 Q1029 NOSIG
EHAM 190825Z 06008KT 030V090 CAVOK 16/06 Q1029 NOSIG
EHAM 190755Z 06007KT 030V100 CAVOK 15/06 Q1029 NOSIG
EHAM 190725Z 06008KT 020V090 CAVOK 14/06 Q1029 NOSIG
EHAM 190655Z 06007KT 030V100 CAVOK 13/05 Q1028 NOSIG
EHAM 190625Z 05005KT 020V090 CAVOK 12/05 Q1028 NOSIG